sensor_id;sensor_type;location;lat;lon;timestamp;temperature;humidity
39453;DHT22;25154;-33.684;151.102;2023-07-13T00:02:25;12.50;99.90
39453;DHT22;25154;-33.684;151.102;2023-07-13T00:07:28;12.80;99.90
39453;DHT22;25154;-33.684;151.102;2023-07-13T00:12:36;13.10;99.90
39453;DHT22;25154;-33.684;151.102;2023-07-13T00:17:39;13.30;99.90
39453;DHT22;25154;-33.684;151.102;2023-07-13T00:22:41;13.50;99.90
39453;DHT22;25154;-33.684;151.102;2023-07-13T00:27:44;13.90;99.90
39453;DHT22;25154;-33.684;151.102;2023-07-13T00:32:50;13.90;99.90
39453;DHT22;25154;-33.684;151.102;2023-07-13T00:37:52;14.20;99.90
39453;DHT22;25154;-33.684;151.102;2023-07-13T00:42:58;14.50;99.90
39453;DHT22;25154;-33.684;151.102;2023-07-13T00:48:00;14.70;99.90
39453;DHT22;25154;-33.684;151.102;2023-07-13T00:53:03;15.00;99.90
39453;DHT22;25154;-33.684;151.102;2023-07-13T00:58:06;15.40;99.90
39453;DHT22;25154;-33.684;151.102;2023-07-13T01:03:08;15.70;99.90
39453;DHT22;25154;-33.684;151.102;2023-07-13T01:08:11;15.90;99.90
39453;DHT22;25154;-33.684;151.102;2023-07-13T01:13:13;16.10;99.90
39453;DHT22;25154;-33.684;151.102;2023-07-13T01:18:26;16.50;99.90
39453;DHT22;25154;-33.684;151.102;2023-07-13T01:23:30;16.40;99.90
39453;DHT22;25154;-33.684;151.102;2023-07-13T01:28:32;16.90;99.90
39453;DHT22;25154;-33.684;151.102;2023-07-13T01:33:39;17.00;99.90
39453;DHT22;25154;-33.684;151.102;2023-07-13T01:38:42;17.20;99.80
39453;DHT22;25154;-33.684;151.102;2023-07-13T01:49:41;17.30;97.20
39453;DHT22;25154;-33.684;151.102;2023-07-13T01:54:44;17.60;96.90
39453;DHT22;25154;-33.684;151.102;2023-07-13T01:59:46;17.70;95.60
39453;DHT22;25154;-33.684;151.102;2023-07-13T02:04:48;18.20;96.30
39453;DHT22;25154;-33.684;151.102;2023-07-13T02:09:51;18.10;96.10
39453;DHT22;25154;-33.684;151.102;2023-07-13T02:14:54;18.40;96.30
39453;DHT22;25154;-33.684;151.102;2023-07-13T02:19:57;18.60;96.30
39453;DHT22;25154;-33.684;151.102;2023-07-13T02:24:59;18.80;94.50
39453;DHT22;25154;-33.684;151.102;2023-07-13T02:30:01;18.70;95.30
39453;DHT22;25154;-33.684;151.102;2023-07-13T02:35:05;19.10;93.50
39453;DHT22;25154;-33.684;151.102;2023-07-13T02:40:07;19.10;93.60
39453;DHT22;25154;-33.684;151.102;2023-07-13T02:45:10;19.30;93.70
39453;DHT22;25154;-33.684;151.102;2023-07-13T02:50:14;19.50;92.70
39453;DHT22;25154;-33.684;151.102;2023-07-13T02:55:16;19.00;92.30
39453;DHT22;25154;-33.684;151.102;2023-07-13T03:00:19;19.30;93.60
39453;DHT22;25154;-33.684;151.102;2023-07-13T03:05:23;19.90;93.20
39453;DHT22;25154;-33.684;151.102;2023-07-13T03:10:25;20.10;92.10
39453;DHT22;25154;-33.684;151.102;2023-07-13T03:15:28;20.40;92.30
39453;DHT22;25154;-33.684;151.102;2023-07-13T03:20:36;20.80;92.00
39453;DHT22;25154;-33.684;151.102;2023-07-13T03:25:38;20.80;91.60
39453;DHT22;25154;-33.684;151.102;2023-07-13T03:30:41;20.80;90.20
39453;DHT22;25154;-33.684;151.102;2023-07-13T03:35:43;20.40;89.00
39453;DHT22;25154;-33.684;151.102;2023-07-13T03:40:46;19.60;90.50
39453;DHT22;25154;-33.684;151.102;2023-07-13T03:45:48;21.10;89.20
39453;DHT22;25154;-33.684;151.102;2023-07-13T03:50:51;21.10;90.10
39453;DHT22;25154;-33.684;151.102;2023-07-13T03:55:53;21.40;88.80
39453;DHT22;25154;-33.684;151.102;2023-07-13T04:00:57;21.30;88.20
39453;DHT22;25154;-33.684;151.102;2023-07-13T04:06:05;21.00;89.10
39453;DHT22;25154;-33.684;151.102;2023-07-13T04:11:08;20.90;88.30
39453;DHT22;25154;-33.684;151.102;2023-07-13T04:16:10;21.00;87.10
39453;DHT22;25154;-33.684;151.102;2023-07-13T04:21:13;21.30;86.20
39453;DHT22;25154;-33.684;151.102;2023-07-13T04:26:16;21.70;86.00
39453;DHT22;25154;-33.684;151.102;2023-07-13T04:31:18;23.40;86.80
39453;DHT22;25154;-33.684;151.102;2023-07-13T04:36:20;23.60;81.50
39453;DHT22;25154;-33.684;151.102;2023-07-13T04:41:23;22.40;82.30
39453;DHT22;25154;-33.684;151.102;2023-07-13T04:46:25;22.60;82.30
39453;DHT22;25154;-33.684;151.102;2023-07-13T04:51:27;22.90;84.00
39453;DHT22;25154;-33.684;151.102;2023-07-13T04:56:30;23.10;81.90
39453;DHT22;25154;-33.684;151.102;2023-07-13T05:01:33;23.10;81.40
39453;DHT22;25154;-33.684;151.102;2023-07-13T05:06:36;25.70;76.90
39453;DHT22;25154;-33.684;151.102;2023-07-13T05:11:38;28.40;72.50
39453;DHT22;25154;-33.684;151.102;2023-07-13T05:16:41;29.60;70.10
39453;DHT22;25154;-33.684;151.102;2023-07-13T05:21:43;30.50;67.70
39453;DHT22;25154;-33.684;151.102;2023-07-13T05:26:45;31.40;63.10
39453;DHT22;25154;-33.684;151.102;2023-07-13T05:31:48;31.50;62.80
39453;DHT22;25154;-33.684;151.102;2023-07-13T05:36:50;32.00;61.70
39453;DHT22;25154;-33.684;151.102;2023-07-13T05:41:53;32.40;61.10
39453;DHT22;25154;-33.684;151.102;2023-07-13T05:46:57;32.70;60.20
39453;DHT22;25154;-33.684;151.102;2023-07-13T05:51:59;32.70;60.60
39453;DHT22;25154;-33.684;151.102;2023-07-13T05:57:02;31.70;61.20
39453;DHT22;25154;-33.684;151.102;2023-07-13T06:02:05;30.70;62.50
39453;DHT22;25154;-33.684;151.102;2023-07-13T06:07:07;25.10;71.30
39453;DHT22;25154;-33.684;151.102;2023-07-13T06:12:09;21.90;80.30
39453;DHT22;25154;-33.684;151.102;2023-07-13T06:17:12;20.80;82.20
39453;DHT22;25154;-33.684;151.102;2023-07-13T06:22:14;20.20;90.00
39453;DHT22;25154;-33.684;151.102;2023-07-13T06:27:16;19.80;91.10
39453;DHT22;25154;-33.684;151.102;2023-07-13T06:32:19;19.70;91.60
39453;DHT22;25154;-33.684;151.102;2023-07-13T06:37:22;18.60;94.50
39453;DHT22;25154;-33.684;151.102;2023-07-13T06:42:25;17.50;99.90
39453;DHT22;25154;-33.684;151.102;2023-07-13T06:47:27;16.70;99.90
39453;DHT22;25154;-33.684;151.102;2023-07-13T06:52:29;16.40;99.90
39453;DHT22;25154;-33.684;151.102;2023-07-13T06:57:32;15.80;99.90
39453;DHT22;25154;-33.684;151.102;2023-07-13T07:02:34;15.70;99.90
39453;DHT22;25154;-33.684;151.102;2023-07-13T07:07:36;15.40;99.90
39453;DHT22;25154;-33.684;151.102;2023-07-13T07:12:40;14.70;99.90
39453;DHT22;25154;-33.684;151.102;2023-07-13T07:17:42;14.60;99.90
39453;DHT22;25154;-33.684;151.102;2023-07-13T07:22:45;14.40;99.90
39453;DHT22;25154;-33.684;151.102;2023-07-13T07:27:47;13.90;99.90
39453;DHT22;25154;-33.684;151.102;2023-07-13T07:32:50;13.80;99.90
39453;DHT22;25154;-33.684;151.102;2023-07-13T07:37:52;13.70;99.90
39453;DHT22;25154;-33.684;151.102;2023-07-13T07:42:54;13.30;99.90
39453;DHT22;25154;-33.684;151.102;2023-07-13T07:47:56;13.10;99.90
39453;DHT22;25154;-33.684;151.102;2023-07-13T07:53:00;12.80;99.90
39453;DHT22;25154;-33.684;151.102;2023-07-13T07:58:04;12.70;99.90
39453;DHT22;25154;-33.684;151.102;2023-07-13T08:03:06;12.50;99.90
39453;DHT22;25154;-33.684;151.102;2023-07-13T08:08:08;12.30;99.90
39453;DHT22;25154;-33.684;151.102;2023-07-13T08:13:12;12.10;99.90
39453;DHT22;25154;-33.684;151.102;2023-07-13T08:18:14;12.10;99.90
39453;DHT22;25154;-33.684;151.102;2023-07-13T08:23:18;12.00;99.90
39453;DHT22;25154;-33.684;151.102;2023-07-13T08:28:21;11.80;99.90
39453;DHT22;25154;-33.684;151.102;2023-07-13T08:33:23;11.70;99.90
39453;DHT22;25154;-33.684;151.102;2023-07-13T08:38:25;11.60;99.90
39453;DHT22;25154;-33.684;151.102;2023-07-13T08:43:36;11.50;99.90
39453;DHT22;25154;-33.684;151.102;2023-07-13T08:48:55;11.50;99.90
39453;DHT22;25154;-33.684;151.102;2023-07-13T08:54:02;11.50;99.90
39453;DHT22;25154;-33.684;151.102;2023-07-13T08:59:14;11.20;99.90
39453;DHT22;25154;-33.684;151.102;2023-07-13T09:04:27;11.20;99.90
39453;DHT22;25154;-33.684;151.102;2023-07-13T09:09:42;11.00;99.90
39453;DHT22;25154;-33.684;151.102;2023-07-13T09:14:53;10.80;99.90
39453;DHT22;25154;-33.684;151.102;2023-07-13T09:20:15;10.60;99.90
39453;DHT22;25154;-33.684;151.102;2023-07-13T09:25:35;10.70;99.90
39453;DHT22;25154;-33.684;151.102;2023-07-13T09:36:35;10.10;99.90
39453;DHT22;25154;-33.684;151.102;2023-07-13T09:46:56;10.10;99.90
39453;DHT22;25154;-33.684;151.102;2023-07-13T09:52:04;10.10;99.90
39453;DHT22;25154;-33.684;151.102;2023-07-13T09:57:15;9.90;99.90
39453;DHT22;25154;-33.684;151.102;2023-07-13T10:02:36;9.80;99.90
39453;DHT22;25154;-33.684;151.102;2023-07-13T10:07:42;9.70;99.90
39453;DHT22;25154;-33.684;151.102;2023-07-13T10:12:49;9.70;99.90
39453;DHT22;25154;-33.684;151.102;2023-07-13T10:17:54;9.40;99.90
39453;DHT22;25154;-33.684;151.102;2023-07-13T10:23:05;9.30;99.90
39453;DHT22;25154;-33.684;151.102;2023-07-13T10:28:36;9.40;99.90
39453;DHT22;25154;-33.684;151.102;2023-07-13T10:33:39;9.20;99.90
39453;DHT22;25154;-33.684;151.102;2023-07-13T10:38:42;9.30;99.90
39453;DHT22;25154;-33.684;151.102;2023-07-13T10:43:49;8.90;99.90
39453;DHT22;25154;-33.684;151.102;2023-07-13T10:48:52;8.90;99.90
39453;DHT22;25154;-33.684;151.102;2023-07-13T10:59:25;8.70;99.90
39453;DHT22;25154;-33.684;151.102;2023-07-13T11:04:39;9.00;99.90
39453;DHT22;25154;-33.684;151.102;2023-07-13T11:09:41;8.60;99.90
39453;DHT22;25154;-33.684;151.102;2023-07-13T11:25:28;8.70;99.90
39453;DHT22;25154;-33.684;151.102;2023-07-13T11:30:31;8.60;99.90
39453;DHT22;25154;-33.684;151.102;2023-07-13T11:35:38;8.40;99.90
39453;DHT22;25154;-33.684;151.102;2023-07-13T11:40:45;8.10;99.90
39453;DHT22;25154;-33.684;151.102;2023-07-13T11:45:48;8.10;99.90
39453;DHT22;25154;-33.684;151.102;2023-07-13T11:51:04;8.10;99.90
39453;DHT22;25154;-33.684;151.102;2023-07-13T11:56:09;7.80;99.90
39453;DHT22;25154;-33.684;151.102;2023-07-13T12:01:20;8.00;99.90
39453;DHT22;25154;-33.684;151.102;2023-07-13T12:06:36;8.00;99.90
39453;DHT22;25154;-33.684;151.102;2023-07-13T12:11:44;8.10;99.90
39453;DHT22;25154;-33.684;151.102;2023-07-13T12:16:47;8.00;99.90
39453;DHT22;25154;-33.684;151.102;2023-07-13T12:21:52;7.90;99.90
39453;DHT22;25154;-33.684;151.102;2023-07-13T12:27:05;8.00;99.90
39453;DHT22;25154;-33.684;151.102;2023-07-13T12:32:17;7.80;99.90
39453;DHT22;25154;-33.684;151.102;2023-07-13T12:37:20;7.90;99.90
39453;DHT22;25154;-33.684;151.102;2023-07-13T12:42:26;7.80;99.90
39453;DHT22;25154;-33.684;151.102;2023-07-13T12:47:30;7.80;99.90
39453;DHT22;25154;-33.684;151.102;2023-07-13T12:52:37;7.60;99.90
39453;DHT22;25154;-33.684;151.102;2023-07-13T12:57:49;7.60;99.90
39453;DHT22;25154;-33.684;151.102;2023-07-13T13:02:54;7.60;99.90
39453;DHT22;25154;-33.684;151.102;2023-07-13T13:07:57;7.60;99.90
39453;DHT22;25154;-33.684;151.102;2023-07-13T13:13:00;7.60;99.90
39453;DHT22;25154;-33.684;151.102;2023-07-13T13:18:02;7.40;99.90
39453;DHT22;25154;-33.684;151.102;2023-07-13T13:23:07;7.50;99.90
39453;DHT22;25154;-33.684;151.102;2023-07-13T13:28:17;7.40;99.90
39453;DHT22;25154;-33.684;151.102;2023-07-13T13:33:21;7.30;99.90
39453;DHT22;25154;-33.684;151.102;2023-07-13T13:38:28;7.40;99.90
39453;DHT22;25154;-33.684;151.102;2023-07-13T13:43:30;7.40;99.90
39453;DHT22;25154;-33.684;151.102;2023-07-13T13:48:34;7.50;99.90
39453;DHT22;25154;-33.684;151.102;2023-07-13T13:53:37;7.70;99.90
39453;DHT22;25154;-33.684;151.102;2023-07-13T13:58:40;7.90;99.90
39453;DHT22;25154;-33.684;151.102;2023-07-13T14:03:43;8.10;99.90
39453;DHT22;25154;-33.684;151.102;2023-07-13T14:08:46;7.60;99.90
39453;DHT22;25154;-33.684;151.102;2023-07-13T14:13:57;7.60;99.90
39453;DHT22;25154;-33.684;151.102;2023-07-13T14:19:00;7.40;99.90
39453;DHT22;25154;-33.684;151.102;2023-07-13T14:24:03;7.30;99.90
39453;DHT22;25154;-33.684;151.102;2023-07-13T14:29:16;7.20;99.90
39453;DHT22;25154;-33.684;151.102;2023-07-13T14:34:19;7.00;99.90
39453;DHT22;25154;-33.684;151.102;2023-07-13T14:39:24;6.80;99.90
39453;DHT22;25154;-33.684;151.102;2023-07-13T14:44:29;6.60;99.90
39453;DHT22;25154;-33.684;151.102;2023-07-13T14:49:47;6.50;99.90
39453;DHT22;25154;-33.684;151.102;2023-07-13T14:54:49;6.70;99.90
39453;DHT22;25154;-33.684;151.102;2023-07-13T14:59:51;6.60;99.90
39453;DHT22;25154;-33.684;151.102;2023-07-13T15:04:54;6.80;99.90
39453;DHT22;25154;-33.684;151.102;2023-07-13T15:09:56;6.40;99.90
39453;DHT22;25154;-33.684;151.102;2023-07-13T15:14:58;8.60;99.90
39453;DHT22;25154;-33.684;151.102;2023-07-13T15:20:01;9.50;99.90
39453;DHT22;25154;-33.684;151.102;2023-07-13T15:25:03;10.00;99.90
39453;DHT22;25154;-33.684;151.102;2023-07-13T15:30:07;10.80;99.90
39453;DHT22;25154;-33.684;151.102;2023-07-13T15:35:22;11.00;99.90
39453;DHT22;25154;-33.684;151.102;2023-07-13T15:40:24;11.00;99.90
39453;DHT22;25154;-33.684;151.102;2023-07-13T15:45:27;11.00;99.90
39453;DHT22;25154;-33.684;151.102;2023-07-13T15:50:31;10.10;99.90
39453;DHT22;25154;-33.684;151.102;2023-07-13T15:55:43;8.90;99.90
39453;DHT22;25154;-33.684;151.102;2023-07-13T16:00:47;9.70;99.90
39453;DHT22;25154;-33.684;151.102;2023-07-13T16:05:53;10.40;99.90
39453;DHT22;25154;-33.684;151.102;2023-07-13T16:10:56;10.20;99.90
39453;DHT22;25154;-33.684;151.102;2023-07-13T16:15:59;10.30;99.90
39453;DHT22;25154;-33.684;151.102;2023-07-13T16:21:01;11.20;99.90
39453;DHT22;25154;-33.684;151.102;2023-07-13T16:26:12;11.30;99.90
39453;DHT22;25154;-33.684;151.102;2023-07-13T16:31:18;11.10;99.90
39453;DHT22;25154;-33.684;151.102;2023-07-13T16:36:20;10.10;99.90
39453;DHT22;25154;-33.684;151.102;2023-07-13T16:41:25;10.10;99.90
39453;DHT22;25154;-33.684;151.102;2023-07-13T16:46:27;10.10;99.90
39453;DHT22;25154;-33.684;151.102;2023-07-13T16:51:30;9.60;99.90
39453;DHT22;25154;-33.684;151.102;2023-07-13T16:56:32;9.50;99.90
39453;DHT22;25154;-33.684;151.102;2023-07-13T17:01:36;10.20;99.90
39453;DHT22;25154;-33.684;151.102;2023-07-13T17:06:39;9.90;99.90
39453;DHT22;25154;-33.684;151.102;2023-07-13T17:11:42;9.80;99.90
39453;DHT22;25154;-33.684;151.102;2023-07-13T17:16:55;10.40;99.90
39453;DHT22;25154;-33.684;151.102;2023-07-13T17:21:57;10.20;99.90
39453;DHT22;25154;-33.684;151.102;2023-07-13T17:27:01;10.80;99.90
39453;DHT22;25154;-33.684;151.102;2023-07-13T17:32:05;10.70;99.90
39453;DHT22;25154;-33.684;151.102;2023-07-13T17:37:15;10.90;99.90
39453;DHT22;25154;-33.684;151.102;2023-07-13T17:42:18;10.90;99.90
39453;DHT22;25154;-33.684;151.102;2023-07-13T17:47:27;10.70;99.90
39453;DHT22;25154;-33.684;151.102;2023-07-13T17:52:29;10.40;99.90
39453;DHT22;25154;-33.684;151.102;2023-07-13T17:57:32;10.40;99.90
39453;DHT22;25154;-33.684;151.102;2023-07-13T18:02:34;10.70;99.90
39453;DHT22;25154;-33.684;151.102;2023-07-13T18:07:36;10.90;99.90
39453;DHT22;25154;-33.684;151.102;2023-07-13T18:12:39;10.70;99.90
39453;DHT22;25154;-33.684;151.102;2023-07-13T18:17:48;10.40;99.90
39453;DHT22;25154;-33.684;151.102;2023-07-13T18:22:52;10.20;99.90
39453;DHT22;25154;-33.684;151.102;2023-07-13T18:27:57;10.00;99.90
39453;DHT22;25154;-33.684;151.102;2023-07-13T18:32:59;10.10;99.90
39453;DHT22;25154;-33.684;151.102;2023-07-13T18:38:02;10.60;99.90
39453;DHT22;25154;-33.684;151.102;2023-07-13T18:43:06;10.70;99.90
39453;DHT22;25154;-33.684;151.102;2023-07-13T18:48:15;10.80;99.90
39453;DHT22;25154;-33.684;151.102;2023-07-13T18:53:21;10.80;99.90
39453;DHT22;25154;-33.684;151.102;2023-07-13T18:58:23;10.80;99.90
39453;DHT22;25154;-33.684;151.102;2023-07-13T19:03:36;10.70;99.90
39453;DHT22;25154;-33.684;151.102;2023-07-13T19:08:42;9.70;99.90
39453;DHT22;25154;-33.684;151.102;2023-07-13T19:13:45;9.50;99.90
39453;DHT22;25154;-33.684;151.102;2023-07-13T19:18:51;9.60;99.90
39453;DHT22;25154;-33.684;151.102;2023-07-13T19:28:57;9.70;99.90
39453;DHT22;25154;-33.684;151.102;2023-07-13T19:34:17;9.40;99.90
39453;DHT22;25154;-33.684;151.102;2023-07-13T19:39:28;9.70;99.90
39453;DHT22;25154;-33.684;151.102;2023-07-13T19:44:31;9.30;99.90
39453;DHT22;25154;-33.684;151.102;2023-07-13T19:49:34;10.10;99.90
39453;DHT22;25154;-33.684;151.102;2023-07-13T19:54:36;10.30;99.90
39453;DHT22;25154;-33.684;151.102;2023-07-13T19:59:43;10.20;99.90
39453;DHT22;25154;-33.684;151.102;2023-07-13T20:04:53;10.10;99.90
39453;DHT22;25154;-33.684;151.102;2023-07-13T20:09:56;10.10;99.90
39453;DHT22;25154;-33.684;151.102;2023-07-13T20:14:58;10.00;99.90
39453;DHT22;25154;-33.684;151.102;2023-07-13T20:20:01;10.10;99.90
39453;DHT22;25154;-33.684;151.102;2023-07-13T20:25:22;10.00;99.90
39453;DHT22;25154;-33.684;151.102;2023-07-13T20:30:25;9.80;99.90
39453;DHT22;25154;-33.684;151.102;2023-07-13T20:35:34;9.90;99.90
39453;DHT22;25154;-33.684;151.102;2023-07-13T20:40:36;9.60;99.90
39453;DHT22;25154;-33.684;151.102;2023-07-13T20:45:40;9.40;99.90
39453;DHT22;25154;-33.684;151.102;2023-07-13T20:50:42;9.50;99.90
39453;DHT22;25154;-33.684;151.102;2023-07-13T20:55:45;9.60;99.90
39453;DHT22;25154;-33.684;151.102;2023-07-13T21:00:48;9.70;99.90
39453;DHT22;25154;-33.684;151.102;2023-07-13T21:05:51;9.70;99.90
39453;DHT22;25154;-33.684;151.102;2023-07-13T21:10:54;9.60;99.90
39453;DHT22;25154;-33.684;151.102;2023-07-13T21:16:09;9.90;99.90
39453;DHT22;25154;-33.684;151.102;2023-07-13T21:21:18;10.10;99.90
39453;DHT22;25154;-33.684;151.102;2023-07-13T21:26:21;10.40;99.90
39453;DHT22;25154;-33.684;151.102;2023-07-13T21:31:27;10.60;99.90
39453;DHT22;25154;-33.684;151.102;2023-07-13T21:36:30;10.50;99.90
39453;DHT22;25154;-33.684;151.102;2023-07-13T21:41:36;10.50;99.90
39453;DHT22;25154;-33.684;151.102;2023-07-13T21:46:39;10.70;99.90
39453;DHT22;25154;-33.684;151.102;2023-07-13T21:51:42;10.80;99.90
39453;DHT22;25154;-33.684;151.102;2023-07-13T21:56:45;10.90;99.90
39453;DHT22;25154;-33.684;151.102;2023-07-13T22:01:48;11.20;99.90
39453;DHT22;25154;-33.684;151.102;2023-07-13T22:06:51;11.50;99.90
39453;DHT22;25154;-33.684;151.102;2023-07-13T22:11:56;11.70;99.90
39453;DHT22;25154;-33.684;151.102;2023-07-13T22:16:59;11.90;99.90
39453;DHT22;25154;-33.684;151.102;2023-07-13T22:22:02;12.10;99.90
39453;DHT22;25154;-33.684;151.102;2023-07-13T22:27:08;12.50;99.90
39453;DHT22;25154;-33.684;151.102;2023-07-13T22:32:11;12.50;99.90
39453;DHT22;25154;-33.684;151.102;2023-07-13T22:37:14;12.90;99.90
39453;DHT22;25154;-33.684;151.102;2023-07-13T22:42:16;13.20;99.90
39453;DHT22;25154;-33.684;151.102;2023-07-13T22:47:20;13.50;99.90
39453;DHT22;25154;-33.684;151.102;2023-07-13T22:52:22;13.70;99.90
39453;DHT22;25154;-33.684;151.102;2023-07-13T22:57:25;13.90;99.90
39453;DHT22;25154;-33.684;151.102;2023-07-13T23:02:27;14.10;99.90
39453;DHT22;25154;-33.684;151.102;2023-07-13T23:07:29;14.40;99.90
39453;DHT22;25154;-33.684;151.102;2023-07-13T23:12:32;15.60;99.90
39453;DHT22;25154;-33.684;151.102;2023-07-13T23:17:35;14.80;99.90
39453;DHT22;25154;-33.684;151.102;2023-07-13T23:22:38;15.10;99.90
39453;DHT22;25154;-33.684;151.102;2023-07-13T23:27:40;15.20;99.90
39453;DHT22;25154;-33.684;151.102;2023-07-13T23:32:46;15.50;99.90
39453;DHT22;25154;-33.684;151.102;2023-07-13T23:37:49;15.60;99.90
39453;DHT22;25154;-33.684;151.102;2023-07-13T23:42:52;15.70;99.90
39453;DHT22;25154;-33.684;151.102;2023-07-13T23:47:56;15.90;99.90
39453;DHT22;25154;-33.684;151.102;2023-07-13T23:52:59;16.10;99.90
39453;DHT22;25154;-33.684;151.102;2023-07-13T23:58:04;16.40;99.90
